createdAt,value
2018-06-27T00:00:04.931Z,0.00
2018-06-27T00:01:04.638Z,0.00
2018-06-27T00:02:04.651Z,0.00
2018-06-27T00:03:04.839Z,0.00
2018-06-27T00:04:04.694Z,0.00
2018-06-27T00:05:04.459Z,0.00
2018-06-27T00:06:04.390Z,0.00
2018-06-27T00:07:04.400Z,0.00
2018-06-27T00:08:04.643Z,0.00
2018-06-27T00:09:04.265Z,0.00
2018-06-27T00:10:04.230Z,0.00
2018-06-27T00:11:04.193Z,0.00
2018-06-27T00:12:04.160Z,0.00
2018-06-27T00:13:04.126Z,0.00
2018-06-27T00:14:04.095Z,0.00
2018-06-27T00:15:04.016Z,0.00
2018-06-27T00:16:04.020Z,0.00
2018-06-27T00:17:04.399Z,0.00
2018-06-27T00:18:03.936Z,0.00
2018-06-27T00:19:03.864Z,0.00
2018-06-27T00:20:03.822Z,0.00
2018-06-27T00:21:03.797Z,0.00
2018-06-27T00:22:04.133Z,0.00
2018-06-27T00:23:14.476Z,0.00
2018-06-27T00:24:03.802Z,0.00
2018-06-27T00:25:03.636Z,0.00
2018-06-27T00:26:03.584Z,0.00
2018-06-27T00:27:03.574Z,0.00
2018-06-27T00:28:03.537Z,0.00
2018-06-27T00:29:03.875Z,0.00
2018-06-27T00:30:03.457Z,0.00
2018-06-27T00:31:03.392Z,0.00
2018-06-27T00:32:03.342Z,0.00
2018-06-27T00:33:03.348Z,0.00
2018-06-27T00:34:03.291Z,0.00
2018-06-27T00:35:03.224Z,0.00
2018-06-27T00:36:03.182Z,0.00
2018-06-27T00:37:03.173Z,0.00
2018-06-27T00:38:03.127Z,0.00
2018-06-27T00:39:03.132Z,0.00
2018-06-27T00:40:03.362Z,0.00
2018-06-27T00:41:03.016Z,0.00
2018-06-27T00:42:02.955Z,0.00
2018-06-27T00:43:03.190Z,0.00
2018-06-27T00:44:03.170Z,0.00
2018-06-27T00:45:02.834Z,0.00
2018-06-27T00:46:02.791Z,0.00
2018-06-27T00:47:13.132Z,0.00
2018-06-27T00:48:02.718Z,0.00
2018-06-27T00:49:02.681Z,0.00
2018-06-27T00:50:02.975Z,0.00
2018-06-27T00:51:02.605Z,0.00
2018-06-27T00:52:02.546Z,0.00
2018-06-27T00:53:02.882Z,0.00
2018-06-27T00:54:02.486Z,0.00
2018-06-27T00:55:02.715Z,0.00
2018-06-27T00:56:02.846Z,0.00
2018-06-27T00:57:02.350Z,0.00
2018-06-27T00:58:02.338Z,0.00
2018-06-27T00:59:02.266Z,0.00
2018-06-27T01:00:02.461Z,0.00
2018-06-27T01:01:02.175Z,0.00
2018-06-27T01:02:02.145Z,0.00
2018-06-27T01:03:02.118Z,0.00
2018-06-27T01:04:02.061Z,0.00
2018-06-27T01:05:02.032Z,0.00
2018-06-27T01:06:02.360Z,0.00
2018-06-27T01:07:01.963Z,0.00
2018-06-27T01:08:01.900Z,0.00
2018-06-27T01:09:01.870Z,0.00
2018-06-27T01:10:01.817Z,0.00
2018-06-27T01:11:01.811Z,0.00
2018-06-27T01:12:12.969Z,0.00
2018-06-27T01:13:01.773Z,0.00
2018-06-27T01:14:01.667Z,0.00
2018-06-27T01:15:01.837Z,0.00
2018-06-27T01:16:01.596Z,0.00
2018-06-27T01:17:01.573Z,0.00
2018-06-27T01:18:01.550Z,0.00
2018-06-27T01:19:01.820Z,0.00
2018-06-27T01:20:01.453Z,0.00
2018-06-27T01:21:01.400Z,0.00
2018-06-27T01:22:01.350Z,0.00
2018-06-27T01:23:01.306Z,0.00
2018-06-27T01:24:01.508Z,0.00
2018-06-27T01:25:01.526Z,0.00
2018-06-27T01:26:01.185Z,0.00
2018-06-27T01:27:01.180Z,0.00
2018-06-27T01:28:01.662Z,0.00
2018-06-27T01:29:01.070Z,0.00
2018-06-27T01:30:01.019Z,0.00
2018-06-27T01:31:00.977Z,0.00
2018-06-27T01:32:01.392Z,0.00
2018-06-27T01:33:01.157Z,0.00
2018-06-27T01:34:00.873Z,0.00
2018-06-27T01:35:11.323Z,0.00
2018-06-27T01:36:00.783Z,0.00
2018-06-27T01:37:01.046Z,0.00
2018-06-27T01:38:00.967Z,0.00
2018-06-27T01:39:01.173Z,0.00
2018-06-27T01:40:00.638Z,0.00
2018-06-27T01:41:00.580Z,0.00
2018-06-27T01:42:00.834Z,0.00
2018-06-27T01:43:00.527Z,0.00
2018-06-27T01:44:00.463Z,0.00
2018-06-27T01:45:00.426Z,0.00
2018-06-27T01:46:00.692Z,0.00
2018-06-27T01:47:00.676Z,0.00
2018-06-27T01:48:00.343Z,0.00
2018-06-27T01:49:00.275Z,0.00
2018-06-27T01:50:00.229Z,0.00
2018-06-27T01:51:00.193Z,0.00
2018-06-27T01:52:00.480Z,0.00
2018-06-27T01:53:00.521Z,0.00
2018-06-27T01:54:00.048Z,0.00
2018-06-27T01:55:00.445Z,0.00
2018-06-27T01:55:59.971Z,0.00
2018-06-27T01:56:59.930Z,0.00
2018-06-27T01:58:00.285Z,0.00
2018-06-27T01:58:59.859Z,0.00
2018-06-27T01:59:59.830Z,0.00
2018-06-27T02:00:59.768Z,0.00
2018-06-27T02:01:59.762Z,0.00
2018-06-27T02:03:00.026Z,0.00
2018-06-27T02:03:59.692Z,0.00
2018-06-27T02:04:59.963Z,0.00
2018-06-27T02:05:59.561Z,0.00
2018-06-27T02:06:59.532Z,0.00
2018-06-27T02:07:59.507Z,0.00
2018-06-27T02:08:59.490Z,0.00
2018-06-27T02:09:59.418Z,0.00
2018-06-27T02:10:59.388Z,0.00
2018-06-27T02:11:59.644Z,0.00
2018-06-27T02:12:59.325Z,0.00
2018-06-27T02:13:59.271Z,0.00
2018-06-27T02:14:59.226Z,0.00
2018-06-27T02:15:59.205Z,0.00
2018-06-27T02:16:59.145Z,0.00
2018-06-27T02:17:59.092Z,0.00
2018-06-27T02:18:59.088Z,0.00
2018-06-27T02:19:59.005Z,0.00
2018-06-27T02:20:58.989Z,0.00
2018-06-27T02:22:09.788Z,0.00
2018-06-27T02:22:58.984Z,0.00
2018-06-27T02:23:58.842Z,0.00
2018-06-27T02:24:58.949Z,0.00
2018-06-27T02:25:58.771Z,0.00
2018-06-27T02:26:58.724Z,0.00
2018-06-27T02:27:58.965Z,0.00
2018-06-27T02:28:58.649Z,0.00
2018-06-27T02:29:58.653Z,0.00
2018-06-27T02:30:59.068Z,0.00
2018-06-27T02:31:58.997Z,0.00
2018-06-27T02:32:58.478Z,0.00
2018-06-27T02:33:58.454Z,0.00
2018-06-27T02:34:58.462Z,0.00
2018-06-27T02:35:58.383Z,0.00
2018-06-27T02:36:58.646Z,0.00
2018-06-27T02:37:58.296Z,0.00
2018-06-27T02:38:58.487Z,0.00
2018-06-27T02:39:58.599Z,0.00
2018-06-27T02:40:58.197Z,0.00
2018-06-27T02:41:58.592Z,0.00
2018-06-27T02:42:58.089Z,0.00
2018-06-27T02:43:58.031Z,0.00
2018-06-27T02:44:58.030Z,0.00
2018-06-27T02:46:08.075Z,0.00
2018-06-27T02:46:58.307Z,0.00
2018-06-27T02:47:57.893Z,0.00
2018-06-27T02:48:57.838Z,0.00
2018-06-27T02:49:58.244Z,0.00
2018-06-27T02:50:57.799Z,0.00
2018-06-27T02:51:58.040Z,0.00
2018-06-27T02:52:58.091Z,0.00
2018-06-27T02:53:57.664Z,0.00
2018-06-27T02:54:57.595Z,0.00
2018-06-27T02:55:57.593Z,0.00
2018-06-27T02:56:57.517Z,0.00
2018-06-27T02:57:57.512Z,0.00
2018-06-27T02:58:57.552Z,0.00
2018-06-27T02:59:57.516Z,0.00
2018-06-27T03:00:57.500Z,0.00
2018-06-27T03:01:57.357Z,0.00
2018-06-27T03:02:57.289Z,0.00
2018-06-27T03:03:57.256Z,5.63
2018-06-27T03:04:57.390Z,5.63
2018-06-27T03:05:57.154Z,5.63
2018-06-27T03:06:57.140Z,5.63
2018-06-27T03:07:57.079Z,5.63
2018-06-27T03:08:57.214Z,5.63
2018-06-27T03:09:57.006Z,5.63
2018-06-27T03:10:56.962Z,5.63
2018-06-27T03:11:56.973Z,5.63
2018-06-27T03:12:56.910Z,11.25
2018-06-27T03:13:56.820Z,11.25
2018-06-27T03:14:56.792Z,11.25
2018-06-27T03:15:56.753Z,11.25
2018-06-27T03:16:56.833Z,11.25
2018-06-27T03:17:56.703Z,16.88
2018-06-27T03:18:56.647Z,16.88
2018-06-27T03:19:56.606Z,16.88
2018-06-27T03:20:56.589Z,16.88
2018-06-27T03:21:56.614Z,16.88
2018-06-27T03:22:56.508Z,22.50
2018-06-27T03:23:56.540Z,22.50
2018-06-27T03:24:56.402Z,22.50
2018-06-27T03:25:56.368Z,28.13
2018-06-27T03:26:56.363Z,28.13
2018-06-27T03:27:56.305Z,28.13
2018-06-27T03:28:56.256Z,28.13
2018-06-27T03:29:56.236Z,33.75
2018-06-27T03:30:56.180Z,33.75
2018-06-27T03:31:56.140Z,33.75
2018-06-27T03:32:56.086Z,39.38
2018-06-27T03:33:56.074Z,39.38
2018-06-27T03:34:56.084Z,39.38
2018-06-27T03:35:56.080Z,45.00
2018-06-27T03:36:56.025Z,45.00
2018-06-27T03:37:55.885Z,45.00
2018-06-27T03:38:55.853Z,50.63
2018-06-27T03:39:55.827Z,50.63
2018-06-27T03:40:55.823Z,50.63
2018-06-27T03:41:55.760Z,56.25
2018-06-27T03:42:55.708Z,56.25
2018-06-27T03:43:55.725Z,56.25
2018-06-27T03:44:55.685Z,61.88
2018-06-27T03:45:55.556Z,61.88
2018-06-27T03:46:55.551Z,67.50
2018-06-27T03:47:55.483Z,67.50
2018-06-27T03:48:55.475Z,67.50
2018-06-27T03:49:55.437Z,73.13
2018-06-27T03:50:55.504Z,73.13
2018-06-27T03:51:55.488Z,78.75
2018-06-27T03:52:55.293Z,78.75
2018-06-27T03:53:55.250Z,78.75
2018-06-27T03:54:55.242Z,84.38
2018-06-27T03:55:55.325Z,84.38
2018-06-27T03:56:55.224Z,90.00
2018-06-27T03:57:55.099Z,90.00
2018-06-27T03:58:55.125Z,90.00
2018-06-27T03:59:55.047Z,95.63
2018-06-27T04:00:54.974Z,95.63
2018-06-27T04:01:54.944Z,95.63
2018-06-27T04:02:54.887Z,101.25
2018-06-27T04:03:54.857Z,101.25
2018-06-27T04:04:54.840Z,106.88
2018-06-27T04:05:54.821Z,106.88
2018-06-27T04:06:54.736Z,106.88
2018-06-27T04:07:54.701Z,112.50
2018-06-27T04:08:54.667Z,112.50
2018-06-27T04:09:54.725Z,118.13
2018-06-27T04:10:54.601Z,118.13
2018-06-27T04:11:54.637Z,118.13
2018-06-27T04:12:54.608Z,123.75
2018-06-27T04:13:54.450Z,123.75
2018-06-27T04:14:54.629Z,129.38
2018-06-27T04:15:54.402Z,129.38
2018-06-27T04:16:54.456Z,129.38
2018-06-27T04:17:54.390Z,135.00
2018-06-27T04:18:54.266Z,135.00
2018-06-27T04:19:54.214Z,140.63
2018-06-27T04:20:54.182Z,140.63
2018-06-27T04:21:54.186Z,140.63
2018-06-27T04:22:54.110Z,146.25
2018-06-27T04:23:54.068Z,146.25
2018-06-27T04:24:54.212Z,151.88
2018-06-27T04:25:53.992Z,151.88
2018-06-27T04:26:53.964Z,157.50
2018-06-27T04:27:53.908Z,157.50
2018-06-27T04:28:53.882Z,163.13
2018-06-27T04:29:53.846Z,168.75
2018-06-27T04:30:53.782Z,174.38
2018-06-27T04:31:53.783Z,213.75
2018-06-27T04:32:53.712Z,258.75
2018-06-27T04:33:53.668Z,286.88
2018-06-27T04:34:53.643Z,315.00
2018-06-27T04:35:53.659Z,326.25
2018-06-27T04:36:53.546Z,331.88
2018-06-27T04:37:53.564Z,337.50
2018-06-27T04:38:53.471Z,343.13
2018-06-27T04:39:53.476Z,348.75
2018-06-27T04:40:53.406Z,348.75
2018-06-27T04:41:53.350Z,354.38
2018-06-27T04:42:53.348Z,360.00
2018-06-27T04:43:53.336Z,365.63
2018-06-27T04:44:53.265Z,376.88
2018-06-27T04:45:53.206Z,376.88
2018-06-27T04:46:53.184Z,388.13
2018-06-27T04:47:53.153Z,393.75
2018-06-27T04:48:53.171Z,399.38
2018-06-27T04:49:53.070Z,405.00
2018-06-27T04:50:53.038Z,421.88
2018-06-27T04:51:52.999Z,450.00
2018-06-27T04:52:52.966Z,455.63
2018-06-27T04:53:52.901Z,472.50
2018-06-27T04:54:52.933Z,461.25
2018-06-27T04:55:52.821Z,450.00
2018-06-27T04:56:52.833Z,450.00
2018-06-27T04:57:52.781Z,450.00
2018-06-27T04:58:52.749Z,450.00
2018-06-27T04:59:52.713Z,461.25
2018-06-27T05:00:52.679Z,466.88
2018-06-27T05:01:52.613Z,472.50
2018-06-27T05:02:52.595Z,472.50
2018-06-27T05:03:52.558Z,483.75
2018-06-27T05:04:52.511Z,495.00
2018-06-27T05:05:52.506Z,506.25
2018-06-27T05:06:52.433Z,556.88
2018-06-27T05:07:52.409Z,579.38
2018-06-27T05:08:52.402Z,596.25
2018-06-27T05:09:52.358Z,562.50
2018-06-27T05:10:52.299Z,534.38
2018-06-27T05:11:52.296Z,523.13
2018-06-27T05:12:52.260Z,506.25
2018-06-27T05:13:52.185Z,511.88
2018-06-27T05:14:52.181Z,511.88
2018-06-27T05:15:52.120Z,517.50
2018-06-27T05:16:52.090Z,523.13
2018-06-27T05:17:52.075Z,523.13
2018-06-27T05:18:52.078Z,534.38
2018-06-27T05:19:52.032Z,540.00
2018-06-27T05:20:51.955Z,540.00
2018-06-27T05:21:52.018Z,551.25
2018-06-27T05:22:51.878Z,556.88
2018-06-27T05:23:51.854Z,562.50
2018-06-27T05:24:51.870Z,568.13
2018-06-27T05:25:51.796Z,579.38
2018-06-27T05:26:51.775Z,590.63
2018-06-27T05:27:51.728Z,596.25
2018-06-27T05:28:51.689Z,607.50
2018-06-27T05:29:51.654Z,635.63
2018-06-27T05:30:51.668Z,686.25
2018-06-27T05:31:51.591Z,781.88
2018-06-27T05:32:51.559Z,866.25
2018-06-27T05:33:51.526Z,922.50
2018-06-27T05:34:51.482Z,894.38
2018-06-27T05:35:51.472Z,849.38
2018-06-27T05:36:51.412Z,826.88
2018-06-27T05:37:51.404Z,815.63
2018-06-27T05:38:51.378Z,810.00
2018-06-27T05:39:51.345Z,815.63
2018-06-27T05:40:51.326Z,860.63
2018-06-27T05:41:51.256Z,916.88
2018-06-27T05:42:51.232Z,950.63
2018-06-27T05:43:51.193Z,945.00
2018-06-27T05:44:51.150Z,961.88
2018-06-27T05:45:51.144Z,973.13
2018-06-27T05:46:51.097Z,945.00
2018-06-27T05:47:51.084Z,905.63
2018-06-27T05:48:51.019Z,956.25
2018-06-27T05:49:51.004Z,1040.63
2018-06-27T05:50:50.997Z,1113.75
2018-06-27T05:51:50.964Z,1170.00
2018-06-27T05:52:50.916Z,1068.75
2018-06-27T05:53:50.852Z,928.13
2018-06-27T05:54:50.823Z,945.00
2018-06-27T05:55:50.800Z,928.13
2018-06-27T05:56:50.832Z,973.13
2018-06-27T05:57:50.777Z,1029.38
2018-06-27T05:58:50.715Z,1012.50
2018-06-27T05:59:50.678Z,916.88
2018-06-27T06:00:50.618Z,821.25
2018-06-27T06:01:50.630Z,781.88
2018-06-27T06:02:50.583Z,759.38
2018-06-27T06:03:50.547Z,748.13
2018-06-27T06:04:50.526Z,742.50
2018-06-27T06:05:50.476Z,753.75
2018-06-27T06:06:50.478Z,759.38
2018-06-27T06:07:50.423Z,759.38
2018-06-27T06:08:50.374Z,748.13
2018-06-27T06:09:50.348Z,742.50
2018-06-27T06:10:50.317Z,736.88
2018-06-27T06:11:50.289Z,736.88
2018-06-27T06:12:50.277Z,742.50
2018-06-27T06:13:50.276Z,731.25
2018-06-27T06:14:50.208Z,725.63
2018-06-27T06:15:50.158Z,725.63
2018-06-27T06:16:50.177Z,725.63
2018-06-27T06:17:50.156Z,725.63
2018-06-27T06:18:50.064Z,731.25
2018-06-27T06:19:50.078Z,731.25
2018-06-27T06:20:50.009Z,731.25
2018-06-27T06:21:49.997Z,731.25
2018-06-27T06:22:49.970Z,736.88
2018-06-27T06:23:49.895Z,742.50
2018-06-27T06:24:49.867Z,748.13
2018-06-27T06:25:49.829Z,748.13
2018-06-27T06:26:49.785Z,753.75
2018-06-27T06:27:49.816Z,765.00
2018-06-27T06:28:49.782Z,776.25
2018-06-27T06:29:49.715Z,776.25
2018-06-27T06:30:49.691Z,781.88
2018-06-27T06:31:49.645Z,781.88
2018-06-27T06:32:49.607Z,793.13
2018-06-27T06:33:50.472Z,798.75
2018-06-27T06:34:49.545Z,793.13
2018-06-27T06:35:49.515Z,793.13
2018-06-27T06:36:49.544Z,787.50
2018-06-27T06:37:49.484Z,793.13
2018-06-27T06:38:49.477Z,787.50
2018-06-27T06:39:49.387Z,787.50
2018-06-27T06:40:49.450Z,793.13
2018-06-27T06:41:49.335Z,787.50
2018-06-27T06:42:49.308Z,787.50
2018-06-27T06:43:49.285Z,787.50
2018-06-27T06:44:49.230Z,798.75
2018-06-27T06:45:49.194Z,793.13
2018-06-27T06:46:49.211Z,793.13
2018-06-27T06:47:49.131Z,798.75
2018-06-27T06:48:49.134Z,804.38
2018-06-27T06:49:49.085Z,810.00
2018-06-27T06:50:49.112Z,804.38
2018-06-27T06:51:49.011Z,804.38
2018-06-27T06:52:48.992Z,810.00
2018-06-27T06:53:49.002Z,821.25
2018-06-27T06:54:48.983Z,815.63
2018-06-27T06:55:48.887Z,821.25
2018-06-27T06:56:48.911Z,826.88
2018-06-27T06:57:48.851Z,826.88
2018-06-27T06:58:48.839Z,838.13
2018-06-27T06:59:48.808Z,855.00
2018-06-27T07:00:48.746Z,855.00
2018-06-27T07:01:48.709Z,866.25
2018-06-27T07:02:48.667Z,866.25
2018-06-27T07:03:48.643Z,866.25
2018-06-27T07:04:48.609Z,883.13
2018-06-27T07:05:48.647Z,883.13
2018-06-27T07:06:48.550Z,888.75
2018-06-27T07:07:58.365Z,900.00
2018-06-27T07:08:48.533Z,900.00
2018-06-27T07:09:48.446Z,905.63
2018-06-27T07:10:48.583Z,916.88
2018-06-27T07:11:48.447Z,933.75
2018-06-27T07:12:48.970Z,939.38
2018-06-27T07:13:48.341Z,945.00
2018-06-27T07:14:48.307Z,950.63
2018-06-27T07:15:48.280Z,956.25
2018-06-27T07:16:48.248Z,973.13
2018-06-27T07:17:48.214Z,984.38
2018-06-27T07:18:48.181Z,1001.25
2018-06-27T07:19:48.145Z,1012.50
2018-06-27T07:20:48.122Z,1018.13
2018-06-27T07:21:48.105Z,1023.75
2018-06-27T07:22:48.061Z,1029.38
2018-06-27T07:23:48.037Z,1046.25
2018-06-27T07:24:48.013Z,1063.13
2018-06-27T07:25:48.001Z,1063.13
2018-06-27T07:26:47.981Z,1068.75
2018-06-27T07:27:47.921Z,1085.63
2018-06-27T07:28:47.912Z,1091.25
2018-06-27T07:29:47.853Z,1102.50
2018-06-27T07:30:47.800Z,1108.13
2018-06-27T07:31:47.829Z,1119.38
2018-06-27T07:32:47.760Z,1130.63
2018-06-27T07:33:47.731Z,1141.88
2018-06-27T07:34:47.716Z,1153.13
2018-06-27T07:35:47.660Z,1175.63
2018-06-27T07:36:47.669Z,1181.25
2018-06-27T07:37:47.629Z,1186.88
2018-06-27T07:38:47.590Z,1186.88
2018-06-27T07:39:47.534Z,1198.13
2018-06-27T07:40:47.507Z,1215.00
2018-06-27T07:41:47.500Z,1209.38
2018-06-27T07:42:47.466Z,1220.63
2018-06-27T07:43:47.439Z,1243.13
2018-06-27T07:44:47.425Z,1248.75
2018-06-27T07:45:47.374Z,1248.75
2018-06-27T07:46:47.364Z,1254.38
2018-06-27T07:47:47.361Z,1265.63
2018-06-27T07:48:47.277Z,1260.00
2018-06-27T07:49:47.302Z,1271.25
2018-06-27T07:50:47.218Z,1282.50
2018-06-27T07:51:47.191Z,1288.13
2018-06-27T07:52:47.185Z,1293.75
2018-06-27T07:53:47.123Z,1293.75
2018-06-27T07:54:57.974Z,1305.00
2018-06-27T07:55:47.541Z,1316.25
2018-06-27T07:56:47.066Z,1327.50
2018-06-27T07:57:47.105Z,1350.00
2018-06-27T07:58:47.152Z,1361.25
2018-06-27T07:59:46.981Z,1383.75
2018-06-27T08:00:46.909Z,1383.75
2018-06-27T08:01:46.891Z,1383.75
2018-06-27T08:02:46.884Z,1395.00
2018-06-27T08:03:46.878Z,1389.38
2018-06-27T08:04:46.803Z,1400.63
2018-06-27T08:05:46.830Z,1428.75
2018-06-27T08:06:46.765Z,1456.88
2018-06-27T08:07:46.754Z,1479.38
2018-06-27T08:08:46.736Z,1496.25
2018-06-27T08:09:46.687Z,1524.38
2018-06-27T08:10:46.656Z,1569.38
2018-06-27T08:11:46.605Z,1625.63
2018-06-27T08:12:46.574Z,1676.25
2018-06-27T08:13:46.567Z,1749.38
2018-06-27T08:14:46.549Z,1929.38
2018-06-27T08:15:46.535Z,2103.75
2018-06-27T08:16:46.487Z,2300.63
2018-06-27T08:17:57.299Z,2638.13
2018-06-27T08:18:46.417Z,3324.38
2018-06-27T08:19:46.623Z,3960.00
2018-06-27T08:20:46.734Z,4443.75
2018-06-27T08:21:46.337Z,4725.00
2018-06-27T08:22:46.294Z,4803.75
2018-06-27T08:23:46.308Z,4882.50
2018-06-27T08:24:46.280Z,4916.25
2018-06-27T08:25:46.233Z,4809.38
2018-06-27T08:26:46.238Z,4837.50
2018-06-27T08:27:46.178Z,4758.75
2018-06-27T08:28:46.144Z,4668.75
2018-06-27T08:29:46.146Z,4854.38
2018-06-27T08:30:46.109Z,4815.00
2018-06-27T08:31:46.088Z,4657.50
2018-06-27T08:32:46.029Z,4691.25
2018-06-27T08:33:45.999Z,4809.38
2018-06-27T08:35:45.957Z,4989.38
2018-06-27T08:36:45.925Z,4978.13
2018-06-27T08:37:45.888Z,5000.63
2018-06-27T08:38:45.900Z,5085.00
2018-06-27T08:39:45.838Z,5130.00
2018-06-27T08:40:45.851Z,5118.75
2018-06-27T08:41:57.035Z,5017.50
2018-06-27T08:42:45.862Z,4899.38
2018-06-27T08:43:45.773Z,5101.88
2018-06-27T08:44:46.083Z,5146.88
2018-06-27T08:45:45.669Z,4815.00
2018-06-27T08:46:45.625Z,4123.13
2018-06-27T08:47:45.600Z,3526.88
2018-06-27T08:48:45.621Z,3498.75
2018-06-27T08:49:45.573Z,3684.38
2018-06-27T08:50:45.561Z,4353.75
2018-06-27T08:51:45.482Z,4910.63
2018-06-27T08:52:45.495Z,5068.13
2018-06-27T08:53:45.439Z,4713.75
2018-06-27T08:54:45.422Z,4258.13
2018-06-27T08:55:45.415Z,4387.50
2018-06-27T08:56:45.357Z,4477.50
2018-06-27T08:57:45.326Z,4140.00
2018-06-27T08:58:45.347Z,3774.38
2018-06-27T08:59:45.291Z,4539.38
2018-06-27T09:00:45.253Z,4916.25
2018-06-27T09:01:45.262Z,4758.75
2018-06-27T09:02:45.204Z,4966.88
2018-06-27T09:03:45.161Z,4933.13
2018-06-27T09:04:45.159Z,4927.50
2018-06-27T09:05:55.527Z,4792.50
2018-06-27T09:06:45.123Z,4950.00
2018-06-27T09:07:45.071Z,4938.75
2018-06-27T09:08:45.155Z,4753.13
2018-06-27T09:09:45.707Z,4809.38
2018-06-27T09:10:44.996Z,4820.63
2018-06-27T09:11:44.966Z,4786.88
2018-06-27T09:12:44.957Z,4989.38
2018-06-27T09:13:44.887Z,4702.50
2018-06-27T09:14:44.896Z,4241.25
2018-06-27T09:15:44.844Z,4353.75
2018-06-27T09:16:44.848Z,4725.00
2018-06-27T09:17:44.823Z,4860.00
2018-06-27T09:18:44.823Z,4758.75
2018-06-27T09:19:44.749Z,4567.50
2018-06-27T09:20:44.724Z,4426.88
2018-06-27T09:21:44.758Z,4488.75
2018-06-27T09:22:44.680Z,4466.25
2018-06-27T09:23:44.657Z,4393.13
2018-06-27T09:24:44.639Z,4348.13
2018-06-27T09:25:44.590Z,4190.63
2018-06-27T09:26:44.589Z,4089.38
2018-06-27T09:27:44.583Z,4252.50
2018-06-27T09:28:44.522Z,4438.13
2018-06-27T09:29:44.486Z,4483.13
2018-06-27T09:30:44.519Z,4376.25
2018-06-27T09:31:44.445Z,4410.00
2018-06-27T09:32:44.416Z,4483.13
2018-06-27T09:33:44.406Z,4663.13
2018-06-27T09:34:44.366Z,4651.88
2018-06-27T09:35:44.341Z,4516.88
2018-06-27T09:36:44.318Z,4719.38
2018-06-27T09:37:44.321Z,4831.88
2018-06-27T09:38:44.319Z,4888.13
2018-06-27T09:39:44.253Z,4888.13
2018-06-27T09:40:44.226Z,4781.25
2018-06-27T09:41:44.174Z,4786.88
2018-06-27T09:42:44.176Z,4820.63
2018-06-27T09:43:44.177Z,4685.63
2018-06-27T09:44:44.154Z,4736.25
2018-06-27T09:45:44.080Z,4747.50
2018-06-27T09:46:44.076Z,4545.00
2018-06-27T09:47:44.039Z,4438.13
2018-06-27T09:48:44.005Z,4275.00
2018-06-27T09:49:44.020Z,4230.00
2018-06-27T09:50:43.988Z,4421.25
2018-06-27T09:51:43.907Z,4449.38
2018-06-27T09:52:43.909Z,4533.75
2018-06-27T09:53:43.874Z,4612.50
2018-06-27T09:54:43.875Z,4741.88
2018-06-27T09:55:43.848Z,4606.88
2018-06-27T09:56:43.881Z,4471.88
2018-06-27T09:57:43.774Z,4460.63
2018-06-27T09:58:43.765Z,4404.38
2018-06-27T09:59:43.758Z,4286.25
2018-06-27T10:00:43.704Z,4258.13
2018-06-27T10:01:43.707Z,4477.50
2018-06-27T10:02:43.677Z,4640.63
2018-06-27T10:03:43.629Z,4522.50
2018-06-27T10:04:43.610Z,4438.13
2018-06-27T10:05:43.580Z,4516.88
2018-06-27T10:06:43.547Z,4443.75
2018-06-27T10:07:43.551Z,4488.75
2018-06-27T10:08:43.529Z,4466.25
2018-06-27T10:09:43.475Z,4550.63
2018-06-27T10:10:43.482Z,4635.00
2018-06-27T10:11:43.421Z,4438.13
2018-06-27T10:12:43.421Z,4320.00
2018-06-27T10:13:43.368Z,4297.50
2018-06-27T10:14:43.352Z,4545.00
2018-06-27T10:15:43.358Z,4545.00
2018-06-27T10:16:43.291Z,4393.13
2018-06-27T10:17:54.052Z,4314.38
2018-06-27T10:18:43.236Z,4381.88
2018-06-27T10:19:43.226Z,2728.13
2018-06-27T10:20:43.239Z,4241.25
2018-06-27T10:21:44.079Z,4511.25
2018-06-27T10:22:43.187Z,4595.63
2018-06-27T10:23:43.119Z,4252.50
2018-06-27T10:24:43.106Z,3999.38
2018-06-27T10:25:43.099Z,4275.00
2018-06-27T10:26:43.108Z,4561.88
2018-06-27T10:27:43.038Z,4612.50
2018-06-27T10:28:43.013Z,4280.63
2018-06-27T10:29:43.005Z,4505.63
2018-06-27T10:30:42.949Z,4426.88
2018-06-27T10:31:42.993Z,4573.13
2018-06-27T10:32:42.951Z,4471.88
2018-06-27T10:33:42.884Z,2306.25
2018-06-27T10:34:42.869Z,4477.50
2018-06-27T10:35:42.869Z,4848.75
2018-06-27T10:36:42.799Z,4415.63
2018-06-27T10:37:42.810Z,4376.25
2018-06-27T10:38:42.759Z,4331.25
2018-06-27T10:39:42.730Z,1743.75
2018-06-27T10:40:42.718Z,4303.13
2018-06-27T10:41:53.506Z,4618.13
2018-06-27T10:42:42.705Z,4696.88
2018-06-27T10:43:42.638Z,4629.38
2018-06-27T10:44:42.598Z,4426.88
2018-06-27T10:45:43.292Z,4449.38
2018-06-27T10:46:42.566Z,4387.50
2018-06-27T10:47:42.567Z,4027.50
2018-06-27T10:48:42.480Z,3498.75
2018-06-27T10:49:42.484Z,3003.75
2018-06-27T10:50:42.457Z,3178.13
2018-06-27T10:51:42.416Z,3768.75
2018-06-27T10:52:42.420Z,4145.63
2018-06-27T10:53:42.378Z,4528.13
2018-06-27T10:54:42.349Z,4505.63
2018-06-27T10:55:42.344Z,4438.13
2018-06-27T10:56:42.292Z,4516.88
2018-06-27T10:57:42.315Z,4466.25
2018-06-27T10:58:42.245Z,4466.25
2018-06-27T10:59:42.237Z,4353.75
2018-06-27T11:00:42.211Z,4443.75
2018-06-27T11:01:42.164Z,3976.88
2018-06-27T11:02:42.128Z,4573.13
2018-06-27T11:03:42.127Z,4815.00
2018-06-27T11:04:42.102Z,4606.88
2018-06-27T11:05:42.058Z,4415.63
2018-06-27T11:06:42.065Z,3965.63
2018-06-27T11:07:42.014Z,838.13
2018-06-27T11:08:42.022Z,4173.75
2018-06-27T11:09:41.996Z,4320.00
2018-06-27T11:10:41.947Z,3729.38
2018-06-27T11:11:41.906Z,1715.63
2018-06-27T11:12:41.942Z,4201.88
2018-06-27T11:13:41.911Z,2435.63
2018-06-27T11:14:41.829Z,3701.25
2018-06-27T11:15:41.836Z,2767.50
2018-06-27T11:16:41.784Z,1209.38
2018-06-27T11:17:41.772Z,1248.75
2018-06-27T11:18:41.757Z,4612.50
2018-06-27T11:19:41.704Z,4455.00
2018-06-27T11:20:41.669Z,4162.50
2018-06-27T11:21:41.646Z,1738.13
2018-06-27T11:22:41.621Z,1985.63
2018-06-27T11:23:41.638Z,1170.00
2018-06-27T11:24:41.579Z,2030.63
2018-06-27T11:25:41.542Z,1215.00
2018-06-27T11:26:41.508Z,1215.00
2018-06-27T11:27:41.506Z,720.00
2018-06-27T11:28:41.470Z,641.25
2018-06-27T11:29:41.468Z,1063.13
2018-06-27T11:30:41.401Z,798.75
2018-06-27T11:31:41.369Z,770.63
2018-06-27T11:32:41.375Z,753.75
2018-06-27T11:33:41.333Z,1248.75
2018-06-27T11:34:41.313Z,765.00
2018-06-27T11:35:41.269Z,787.50
2018-06-27T11:36:41.248Z,2896.88
2018-06-27T11:37:41.209Z,804.38
2018-06-27T11:38:41.176Z,4111.88
2018-06-27T11:39:41.183Z,933.75
2018-06-27T11:40:41.138Z,1209.38
2018-06-27T11:41:41.105Z,1845.00
2018-06-27T11:42:41.093Z,1113.75
2018-06-27T11:43:41.045Z,1141.88
2018-06-27T11:44:41.036Z,1344.38
2018-06-27T11:45:41.012Z,3628.13
2018-06-27T11:46:40.947Z,4145.63
2018-06-27T11:47:40.960Z,984.38
2018-06-27T11:48:40.909Z,3442.50
2018-06-27T11:49:40.895Z,2919.38
2018-06-27T11:50:40.878Z,4066.88
2018-06-27T11:51:40.817Z,4033.13
2018-06-27T11:52:50.243Z,4145.63
2018-06-27T11:53:40.861Z,3324.38
2018-06-27T11:54:40.734Z,1001.25
2018-06-27T11:55:40.753Z,646.88
2018-06-27T11:56:40.739Z,1389.38
2018-06-27T11:57:40.678Z,1839.38
2018-06-27T11:58:40.618Z,3982.50
2018-06-27T11:59:40.590Z,4140.00
2018-06-27T12:00:40.638Z,4275.00
2018-06-27T12:01:40.547Z,4522.50
2018-06-27T12:02:40.533Z,4730.63
2018-06-27T12:03:40.509Z,4612.50
2018-06-27T12:04:40.443Z,3931.88
2018-06-27T12:05:40.428Z,1895.63
2018-06-27T12:06:40.449Z,1068.75
2018-06-27T12:07:40.390Z,748.13
2018-06-27T12:08:40.334Z,708.75
2018-06-27T12:09:40.348Z,703.13
2018-06-27T12:10:40.300Z,680.63
2018-06-27T12:11:40.285Z,635.63
2018-06-27T12:12:40.228Z,2143.13
2018-06-27T12:13:40.217Z,4010.63
2018-06-27T12:14:40.185Z,1125.00
2018-06-27T12:15:40.124Z,2413.13
2018-06-27T12:16:40.145Z,2643.75
2018-06-27T12:17:51.550Z,1327.50
2018-06-27T12:18:40.056Z,1451.25
2018-06-27T12:19:40.165Z,3712.50
2018-06-27T12:20:40.746Z,2913.75
2018-06-27T12:21:40.031Z,4055.63
2018-06-27T12:22:39.953Z,2542.50
2018-06-27T12:23:39.905Z,3639.38
2018-06-27T12:24:39.885Z,2182.50
2018-06-27T12:25:39.824Z,1417.50
2018-06-27T12:26:39.819Z,3150.00
2018-06-27T12:27:39.807Z,1198.13
2018-06-27T12:28:39.772Z,4286.25
2018-06-27T12:29:39.730Z,4061.25
2018-06-27T12:30:39.709Z,4162.50
2018-06-27T12:31:39.672Z,3465.00
2018-06-27T12:32:39.676Z,3133.13